Brigus, Canada
Current Conditions -  °F | °C
As of 4:17 AM on Friday 28 Nov 2014 (Local Time) from CYYT Reporting Station
Drizzle Drizzle  
Wind Chill: 26°   Ceiling: 1200
Heat Index: 37°   Visibility: 15mi
Dew Point: 36°   Wind: 25mph
Humidity: 93%   Direction: 260°W
Pressure: 29.47"   Gusts: 32mph
Location:  47.52°N, 53.22°W
Report Text: CYYT 280717Z 26022G28KT 15SM -DZ OVC012 03/02 A2947 RMK SC8 SLP985
Loading
Personal Weather Stations






























Interactive Weather Map New forecast layout! Learn more

10-Day Weather Forecast

Advertisements
Track Severe Weather on mobile